Time;durP1;ratioP1;P1;durP2;ratioP2;P2;SDS_P1;SDS_P2;PMS_P1;PMS_P2;Temp;Humidity;BMP_temperature;BMP_pressure;BME280_temperature;BME280_humidity;BME280_pressure;Samples;Min_cycle;Max_cycle;Signal;HPM_P1;HPM_P2
2023/08/29 00:00:49;;;;;;;2.67;2.42;;;14.80;99.90;;;;;;5129703;28;20046;-66
2023/08/29 00:03:27;;;;;;;4.00;2.78;;;14.90;99.90;;;;;;5122073;28;20043;-65
2023/08/29 00:06:04;;;;;;;3.05;2.67;;;14.90;99.90;;;;;;5134194;28;20211;-66
2023/08/29 00:08:36;;;;;;;3.22;2.38;;;14.90;99.90;;;;;;5132206;28;20047;-65
2023/08/29 00:11:15;;;;;;;4.00;3.00;;;14.90;99.90;;;;;;5145556;28;20081;-66
2023/08/29 00:13:46;;;;;;;4.28;3.15;;;14.90;99.90;;;;;;5168501;28;20039;-66
2023/08/29 00:16:20;;;;;;;3.13;2.60;;;15.00;99.90;;;;;;5117007;28;20043;-73
2023/08/29 00:18:54;;;;;;;3.65;3.30;;;14.90;99.90;;;;;;5125835;28;20047;-67
2023/08/29 00:21:25;;;;;;;3.30;3.00;;;14.90;99.90;;;;;;5118306;28;20086;-66
2023/08/29 00:23:59;;;;;;;6.57;3.10;;;14.90;99.90;;;;;;5117285;28;20300;-66
2023/08/29 00:26:33;;;;;;;6.53;3.15;;;14.90;99.90;;;;;;5118010;28;20591;-64
2023/08/29 00:29:05;;;;;;;4.18;3.22;;;14.90;99.90;;;;;;5132110;28;20050;-66
2023/08/29 00:31:36;;;;;;;4.63;3.45;;;14.90;99.90;;;;;;5114233;28;20047;-65
2023/08/29 00:34:08;;;;;;;4.80;3.17;;;14.90;99.90;;;;;;5127289;28;20039;-65
2023/08/29 00:36:39;;;;;;;5.63;2.97;;;15.00;99.90;;;;;;5124314;28;20471;-62
2023/08/29 00:39:16;;;;;;;3.25;2.95;;;14.90;99.90;;;;;;5115939;28;20046;-63
2023/08/29 00:41:49;;;;;;;3.75;3.13;;;15.00;99.90;;;;;;5075112;28;20051;-68
2023/08/29 00:44:26;;;;;;;4.72;3.40;;;15.00;99.90;;;;;;5136451;28;20048;-65
2023/08/29 00:46:59;;;;;;;4.22;3.25;;;15.10;99.90;;;;;;5115006;28;20197;-63
2023/08/29 00:49:35;;;;;;;7.75;3.53;;;15.10;99.90;;;;;;5116756;28;20067;-63
2023/08/29 00:52:12;;;;;;;3.65;3.22;;;15.10;99.90;;;;;;5098412;28;20046;-65
2023/08/29 00:54:43;;;;;;;3.10;2.72;;;15.10;99.90;;;;;;5134700;28;20042;-66
2023/08/29 00:57:15;;;;;;;3.15;2.83;;;15.10;99.90;;;;;;5102324;28;20047;-64
2023/08/29 00:59:52;;;;;;;3.38;2.70;;;15.10;99.90;;;;;;5134552;28;20065;-66
2023/08/29 01:02:26;;;;;;;3.72;3.13;;;15.10;99.90;;;;;;5211265;23;20282;-66
2023/08/29 01:05:05;;;;;;;4.40;2.80;;;15.10;99.90;;;;;;5144597;28;20060;-69
2023/08/29 01:07:38;;;;;;;3.40;3.10;;;15.20;99.90;;;;;;5172010;28;20052;-67
2023/08/29 01:10:16;;;;;;;3.28;2.97;;;15.10;99.90;;;;;;5148551;28;20422;-67
2023/08/29 01:13:10;;;;;;;3.03;2.63;;;15.10;99.90;;;;;;5158033;28;20045;-68
2023/08/29 01:15:50;;;;;;;2.55;2.35;;;15.10;99.90;;;;;;5151661;28;20069;-67
2023/08/29 01:18:30;;;;;;;2.90;2.70;;;15.00;99.90;;;;;;5169140;28;20041;-67
2023/08/29 01:22:00;;;;;;;3.30;3.00;;;15.00;99.90;;;;;;5179008;28;20057;-66
2023/08/29 01:25:21;;;;;;;2.53;2.25;;;15.20;99.90;;;;;;5079396;29;20057;-67
2023/08/29 01:27:54;;;;;;;5.35;2.38;;;15.30;99.90;;;;;;5035115;29;20086;-66
2023/08/29 01:30:30;;;;;;;3.75;2.88;;;15.30;99.90;;;;;;5091400;29;20043;-65
2023/08/29 01:33:04;;;;;;;3.28;2.97;;;15.30;99.90;;;;;;5093517;29;20051;-69
2023/08/29 01:35:46;;;;;;;3.75;2.80;;;15.30;99.90;;;;;;5075933;29;20351;-69
2023/08/29 01:38:24;;;;;;;3.28;2.55;;;15.40;99.90;;;;;;5044327;29;20051;-69
2023/08/29 01:41:03;;;;;;;2.88;2.30;;;15.40;99.90;;;;;;5080740;29;20058;-68
2023/08/29 01:43:35;;;;;;;5.43;2.83;;;15.30;99.90;;;;;;5087452;29;20086;-67
2023/08/29 01:46:06;;;;;;;3.30;2.85;;;15.30;99.90;;;;;;5105061;29;20363;-66
2023/08/29 01:48:41;;;;;;;3.83;3.28;;;15.20;99.90;;;;;;5076031;29;20051;-69
2023/08/29 01:51:18;;;;;;;5.35;3.47;;;15.20;99.90;;;;;;5089400;29;20527;-68
2023/08/29 01:53:56;;;;;;;3.42;2.90;;;15.30;99.90;;;;;;5111992;28;20049;-67
2023/08/29 01:56:29;;;;;;;3.20;2.90;;;15.30;99.90;;;;;;5120271;28;20372;-68
2023/08/29 01:59:03;;;;;;;4.50;2.53;;;15.30;99.90;;;;;;5148848;28;20054;-68
2023/08/29 02:02:01;;;;;;;5.25;2.70;;;15.30;99.90;;;;;;5173454;28;20254;-67
2023/08/29 02:04:32;;;;;;;2.92;2.42;;;15.30;99.90;;;;;;5157185;28;20081;-66
2023/08/29 02:07:06;;;;;;;3.47;2.65;;;15.30;99.90;;;;;;5157503;28;20361;-67
2023/08/29 02:09:40;;;;;;;4.43;2.63;;;15.30;99.90;;;;;;5188117;28;21196;-67
2023/08/29 02:12:13;;;;;;;3.67;3.00;;;15.20;99.90;;;;;;5149456;28;20077;-67
2023/08/29 02:14:49;;;;;;;4.00;2.78;;;15.20;99.90;;;;;;5146660;28;20038;-68
2023/08/29 02:17:21;;;;;;;2.90;2.20;;;15.20;99.90;;;;;;5139824;28;20052;-69
2023/08/29 02:19:55;;;;;;;4.07;2.97;;;15.20;99.90;;;;;;5156753;28;20532;-68
2023/08/29 02:22:30;;;;;;;3.38;3.08;;;15.20;99.90;;;;;;5160358;28;20067;-69
2023/08/29 02:25:11;;;;;;;3.53;3.10;;;15.10;99.90;;;;;;5141264;28;20034;-70
2023/08/29 02:27:46;;;;;;;2.85;2.50;;;15.20;99.90;;;;;;5141169;28;20049;-68
2023/08/29 02:30:20;;;;;;;2.92;2.58;;;15.20;99.90;;;;;;5129959;28;20704;-68
2023/08/29 02:32:54;;;;;;;2.30;1.95;;;15.20;99.90;;;;;;5136886;28;20045;-68
2023/08/29 02:35:28;;;;;;;5.40;2.60;;;15.20;99.90;;;;;;5145149;28;20358;-70
2023/08/29 02:38:03;;;;;;;3.08;2.60;;;15.20;99.90;;;;;;5155788;28;20374;-68
2023/08/29 02:40:37;;;;;;;2.50;2.30;;;15.30;99.90;;;;;;5142258;28;20060;-68
2023/08/29 02:43:14;;;;;;;2.20;2.00;;;15.30;99.90;;;;;;5156339;28;20072;-69
2023/08/29 02:45:49;;;;;;;1.83;1.60;;;15.30;99.90;;;;;;5164989;28;20044;-69
2023/08/29 02:48:20;;;;;;;;;;;15.30;99.90;;;;;;5158757;28;20553;-70
2023/08/29 02:50:55;;;;;;;2.95;2.35;;;15.30;99.90;;;;;;5162144;28;19921;-70
2023/08/29 02:53:26;;;;;;;2.88;2.40;;;15.40;99.90;;;;;;5161988;28;20041;-65
2023/08/29 02:56:00;;;;;;;2.28;2.08;;;15.50;99.90;;;;;;5173598;28;20046;-68
2023/08/29 02:58:31;;;;;;;2.55;2.28;;;15.50;99.90;;;;;;5174436;28;20048;-67
2023/08/29 03:01:11;;;;;;;2.10;1.63;;;15.50;99.90;;;;;;5154037;28;20041;-69
2023/08/29 03:03:45;;;;;;;2.50;1.70;;;15.50;99.90;;;;;;5153484;28;20046;-69
2023/08/29 03:06:16;;;;;;;2.15;1.95;;;15.50;99.90;;;;;;5144956;28;20052;-67
2023/08/29 03:08:48;;;;;;;2.17;1.88;;;15.50;99.90;;;;;;5162166;28;20042;-67
2023/08/29 03:11:19;;;;;;;2.75;1.90;;;15.50;99.90;;;;;;5142595;28;20034;-67
2023/08/29 03:13:57;;;;;;;3.03;2.17;;;15.50;99.90;;;;;;5146399;28;20045;-68
2023/08/29 03:16:28;;;;;;;2.50;2.13;;;15.50;99.90;;;;;;5142667;28;20041;-68
2023/08/29 03:19:02;;;;;;;2.08;1.88;;;15.50;99.90;;;;;;5176786;28;20056;-68
2023/08/29 03:21:34;;;;;;;1.95;1.80;;;15.50;99.90;;;;;;5155501;28;20041;-70
2023/08/29 03:24:10;;;;;;;2.70;2.13;;;15.50;99.90;;;;;;5144382;28;20048;-69
2023/08/29 03:26:47;;;;;;;1.90;1.73;;;15.50;99.90;;;;;;5177949;28;20199;-65
2023/08/29 03:29:22;;;;;;;2.20;1.90;;;15.50;99.90;;;;;;5162813;28;20030;-67
2023/08/29 03:31:58;;;;;;;3.03;1.90;;;15.60;99.90;;;;;;5144893;28;20041;-67
2023/08/29 03:34:33;;;;;;;2.60;2.08;;;15.60;99.90;;;;;;5137547;28;20520;-68
2023/08/29 03:37:13;;;;;;;1.80;1.70;;;15.60;99.90;;;;;;5179361;28;20045;-69
2023/08/29 03:39:44;;;;;;;2.58;2.20;;;15.60;99.90;;;;;;5130322;28;20042;-67
2023/08/29 03:42:18;;;;;;;2.65;2.20;;;15.50;99.90;;;;;;5165371;28;20047;-69
2023/08/29 03:44:54;;;;;;;2.13;1.98;;;15.60;99.90;;;;;;5149034;28;20160;-67
2023/08/29 03:47:30;;;;;;;2.53;2.25;;;15.60;99.90;;;;;;5159959;28;20042;-67
2023/08/29 03:50:05;;;;;;;2.17;1.98;;;15.50;99.90;;;;;;5164560;28;20024;-67
2023/08/29 03:52:37;;;;;;;2.80;2.60;;;15.60;99.90;;;;;;5157348;28;20028;-67
2023/08/29 03:55:09;;;;;;;2.55;1.98;;;15.60;99.90;;;;;;5146900;28;20042;-67
2023/08/29 03:57:45;;;;;;;2.22;2.00;;;15.60;99.90;;;;;;5158828;28;20480;-67
2023/08/29 04:00:22;;;;;;;2.25;2.05;;;15.50;99.90;;;;;;5155893;28;20038;-67
2023/08/29 04:02:55;;;;;;;2.05;1.85;;;15.50;99.90;;;;;;5142826;28;20480;-69
2023/08/29 04:05:30;;;;;;;2.97;2.45;;;15.50;99.90;;;;;;5160873;28;20037;-69
2023/08/29 04:08:05;;;;;;;2.30;2.10;;;15.50;99.90;;;;;;5145265;28;20045;-68
2023/08/29 04:10:41;;;;;;;3.00;2.22;;;15.50;99.90;;;;;;5149696;28;20042;-69
2023/08/29 04:13:19;;;;;;;1.70;1.58;;;15.50;99.90;;;;;;5146414;28;20072;-68
2023/08/29 04:15:54;;;;;;;3.03;2.13;;;15.50;99.90;;;;;;5142021;28;20334;-68
2023/08/29 04:18:31;;;;;;;;;;;15.40;99.90;;;;;;5146432;28;20053;-68
2023/08/29 04:21:02;;;;;;;2.78;2.20;;;15.50;99.90;;;;;;5177215;28;19921;-68
2023/08/29 04:23:39;;;;;;;2.28;1.88;;;15.50;99.90;;;;;;5139632;28;20046;-69
2023/08/29 04:26:12;;;;;;;3.10;2.08;;;15.50;99.90;;;;;;5156455;28;20042;-70
2023/08/29 04:28:49;;;;;;;3.63;1.90;;;15.50;99.90;;;;;;5141663;28;20571;-68
2023/08/29 04:31:24;;;;;;;2.25;2.05;;;15.50;99.90;;;;;;5172819;28;20029;-67
2023/08/29 04:33:59;;;;;;;2.70;1.65;;;15.60;99.90;;;;;;5144844;28;20056;-68
2023/08/29 04:36:30;;;;;;;1.75;1.48;;;15.60;99.90;;;;;;5160026;28;20216;-69
2023/08/29 04:39:07;;;;;;;3.65;2.80;;;15.60;99.90;;;;;;5144848;28;20278;-68
2023/08/29 04:41:39;;;;;;;1.90;1.60;;;15.50;99.90;;;;;;5152365;28;20041;-69
2023/08/29 04:44:11;;;;;;;2.30;2.00;;;15.50;99.90;;;;;;5153486;28;20049;-68
2023/08/29 04:46:42;;;;;;;2.90;1.92;;;15.50;99.90;;;;;;5156179;28;20038;-68
2023/08/29 04:49:19;;;;;;;2.67;1.80;;;15.40;99.90;;;;;;5162508;28;20044;-67
2023/08/29 04:51:51;;;;;;;5.28;1.80;;;15.40;99.90;;;;;;5150131;28;20056;-68
2023/08/29 04:54:23;;;;;;;2.28;1.95;;;15.40;99.90;;;;;;5139005;28;20285;-69
2023/08/29 04:56:54;;;;;;;1.63;1.52;;;15.50;99.90;;;;;;5161860;28;20045;-68
2023/08/29 04:59:27;;;;;;;3.35;2.00;;;15.50;99.90;;;;;;5142081;28;20046;-68
2023/08/29 05:01:59;;;;;;;1.98;1.70;;;15.50;99.90;;;;;;5136567;28;20183;-67
2023/08/29 05:04:33;;;;;;;1.90;1.80;;;15.50;99.90;;;;;;5178033;28;20044;-69
2023/08/29 05:07:05;;;;;;;2.50;1.80;;;15.50;99.90;;;;;;5146275;28;20042;-68
2023/08/29 05:09:37;;;;;;;2.85;1.98;;;15.60;99.90;;;;;;5178056;28;20036;-68
2023/08/29 05:12:15;;;;;;;2.30;1.67;;;15.70;99.90;;;;;;5176984;28;20059;-67
2023/08/29 05:14:49;;;;;;;1.70;1.58;;;15.60;99.90;;;;;;5159893;28;20034;-67
2023/08/29 05:17:26;;;;;;;;;;;15.60;99.90;;;;;;5151988;28;20380;-70
2023/08/29 05:20:00;;;;;;;1.98;1.77;;;15.70;99.90;;;;;;5141245;28;19932;-68
2023/08/29 05:22:32;;;;;;;1.85;1.75;;;15.70;99.90;;;;;;5141630;28;20045;-69
2023/08/29 05:25:04;;;;;;;3.20;2.17;;;15.80;99.90;;;;;;5158982;28;20040;-67
2023/08/29 05:27:35;;;;;;;3.40;1.90;;;15.70;99.90;;;;;;5160155;28;20187;-70
2023/08/29 05:30:13;;;;;;;1.73;1.63;;;15.70;99.90;;;;;;5143649;28;20332;-68
2023/08/29 05:32:47;;;;;;;1.90;1.65;;;15.70;99.90;;;;;;5137602;28;20045;-70
2023/08/29 05:35:23;;;;;;;1.80;1.70;;;15.80;99.90;;;;;;5157042;28;20046;-68
2023/08/29 05:37:55;;;;;;;1.23;1.13;;;15.90;99.90;;;;;;5184565;28;20036;-68
2023/08/29 05:40:31;;;;;;;1.90;1.70;;;16.00;99.90;;;;;;5154829;28;20038;-69
2023/08/29 05:43:07;;;;;;;1.65;1.55;;;16.20;99.90;;;;;;5177157;28;20377;-69
2023/08/29 05:45:46;;;;;;;1.85;1.60;;;16.20;99.90;;;;;;5174835;28;20040;-69
2023/08/29 05:48:18;;;;;;;2.10;1.52;;;16.10;99.90;;;;;;5141797;28;20098;-69
2023/08/29 05:50:50;;;;;;;2.38;1.95;;;16.00;99.90;;;;;;5133401;28;20346;-69
2023/08/29 05:53:24;;;;;;;1.70;1.60;;;16.10;99.90;;;;;;5117681;28;20045;-68
2023/08/29 05:55:58;;;;;;;2.55;1.88;;;16.10;99.90;;;;;;5138189;28;20376;-67
2023/08/29 05:58:29;;;;;;;3.17;1.98;;;16.30;99.90;;;;;;5141071;28;20040;-70
2023/08/29 06:01:06;;;;;;;1.98;1.88;;;16.40;99.90;;;;;;5133201;28;20528;-70
2023/08/29 06:03:39;;;;;;;3.35;1.90;;;16.30;99.90;;;;;;5145335;28;20329;-68
2023/08/29 06:06:10;;;;;;;2.00;1.73;;;16.20;99.90;;;;;;5140644;28;20156;-68
2023/08/29 06:08:42;;;;;;;1.60;1.50;;;16.30;99.90;;;;;;5138780;28;20112;-68
2023/08/29 06:11:13;;;;;;;1.77;1.55;;;16.10;99.90;;;;;;5173659;28;20051;-69
2023/08/29 06:13:47;;;;;;;1.80;1.70;;;16.20;99.90;;;;;;5156809;28;20315;-68
2023/08/29 06:16:22;;;;;;;1.77;1.63;;;16.20;99.90;;;;;;5155846;28;20042;-68
2023/08/29 06:18:54;;;;;;;2.75;1.73;;;16.20;99.90;;;;;;5152449;28;20046;-67
2023/08/29 06:21:26;;;;;;;1.73;1.58;;;16.00;99.90;;;;;;5158602;28;20320;-68
2023/08/29 06:24:00;;;;;;;2.90;2.00;;;16.00;99.90;;;;;;5144657;28;20056;-71
2023/08/29 06:26:37;;;;;;;2.67;1.92;;;16.00;99.90;;;;;;5155207;28;20439;-69
2023/08/29 06:29:08;;;;;;;2.03;1.58;;;16.00;99.90;;;;;;5146725;28;20232;-67
2023/08/29 06:31:42;;;;;;;3.50;2.13;;;16.00;99.90;;;;;;5150304;28;20034;-70
2023/08/29 06:34:20;;;;;;;2.20;2.00;;;15.80;99.90;;;;;;5163830;28;20226;-71
2023/08/29 06:36:55;;;;;;;2.30;1.70;;;15.80;99.90;;;;;;5142679;28;20063;-67
2023/08/29 06:39:26;;;;;;;;;;;15.80;99.90;;;;;;5155444;28;20330;-67
2023/08/29 06:41:58;;;;;;;1.67;1.55;;;15.80;99.90;;;;;;5176366;28;20219;-67
2023/08/29 06:44:30;;;;;;;1.63;1.38;;;15.80;99.90;;;;;;5158874;28;20034;-68
2023/08/29 06:47:01;;;;;;;2.15;1.65;;;15.80;99.90;;;;;;5137980;28;20054;-68
2023/08/29 06:49:35;;;;;;;2.38;2.00;;;16.00;99.90;;;;;;5140523;28;20072;-67
2023/08/29 06:52:08;;;;;;;1.85;1.73;;;16.00;99.90;;;;;;5130720;28;20028;-67
2023/08/29 06:54:42;;;;;;;2.57;1.50;;;15.80;99.90;;;;;;5153836;28;20044;-68
2023/08/29 06:57:16;;;;;;;1.52;1.42;;;15.70;99.90;;;;;;5155150;28;20797;-69
2023/08/29 06:59:47;;;;;;;0.90;0.82;;;15.80;99.90;;;;;;5138393;28;20032;-68
2023/08/29 07:02:21;;;;;;;1.17;1.08;;;16.00;99.90;;;;;;5153831;28;20387;-68
2023/08/29 07:04:52;;;;;;;4.33;1.40;;;16.10;99.90;;;;;;5158473;28;20052;-68
2023/08/29 07:07:24;;;;;;;2.20;1.25;;;16.10;99.90;;;;;;5173231;28;20272;-68
2023/08/29 07:10:05;;;;;;;1.40;1.15;;;16.40;99.90;;;;;;5159876;28;20038;-68
2023/08/29 07:12:42;;;;;;;2.63;2.03;;;16.30;99.90;;;;;;5140853;28;20084;-68
2023/08/29 07:15:16;;;;;;;2.45;1.17;;;16.30;99.90;;;;;;5138404;28;20563;-67
2023/08/29 07:17:53;;;;;;;1.27;1.17;;;16.10;99.90;;;;;;5176377;28;20030;-67
2023/08/29 07:20:28;;;;;;;1.60;1.50;;;16.40;99.90;;;;;;5173935;28;20044;-68
2023/08/29 07:22:59;;;;;;;1.70;1.58;;;16.30;99.90;;;;;;5136727;28;20053;-68
2023/08/29 07:25:43;;;;;;;1.00;0.90;;;16.30;99.90;;;;;;5158726;28;20041;-68
2023/08/29 07:28:18;;;;;;;3.53;1.30;;;16.40;99.90;;;;;;5160528;28;20066;-68
2023/08/29 07:30:57;;;;;;;1.42;1.33;;;16.60;99.90;;;;;;5156921;28;20041;-68
2023/08/29 07:33:30;;;;;;;1.58;1.25;;;16.80;72.70;;;;;;5169894;28;20571;-69
2023/08/29 07:36:06;;;;;;;3.08;1.52;;;17.00;1.00;;;;;;5145763;28;20042;-70
2023/08/29 07:38:41;;;;;;;1.67;1.02;;;17.00;2.70;;;;;;5159392;28;20060;-70
2023/08/29 07:41:15;;;;;;;1.55;1.02;;;17.20;7.20;;;;;;5176448;28;20041;-69
2023/08/29 07:43:46;;;;;;;;;;;17.20;1.00;;;;;;5181610;28;20040;-68
2023/08/29 07:46:18;;;;;;;1.35;1.20;;;17.00;1.00;;;;;;5155684;28;19921;-70
2023/08/29 07:48:51;;;;;;;1.38;1.27;;;16.60;99.90;;;;;;5172584;28;20348;-70
2023/08/29 07:51:26;;;;;;;1.20;1.08;;;16.80;99.90;;;;;;5127661;28;20041;-67
2023/08/29 07:53:59;;;;;;;1.20;1.10;;;16.60;1.00;;;;;;5144617;28;20048;-68
2023/08/29 07:56:31;;;;;;;1.20;1.10;;;16.60;99.90;;;;;;5154649;28;20228;-67
2023/08/29 07:59:03;;;;;;;0.70;0.70;;;16.70;6.50;;;;;;5178074;28;20246;-68
2023/08/29 08:01:35;;;;;;;1.10;1.00;;;16.70;7.70;;;;;;5142188;28;20160;-68
2023/08/29 08:04:09;;;;;;;0.85;0.85;;;16.70;98.30;;;;;;5152465;28;20231;-68
2023/08/29 08:06:40;;;;;;;2.03;1.00;;;16.60;1.00;;;;;;5152882;28;20525;-69
2023/08/29 08:09:15;;;;;;;0.70;0.70;;;16.40;1.00;;;;;;5176667;28;20040;-69
2023/08/29 08:11:47;;;;;;;0.70;0.70;;;16.40;1.00;;;;;;5149721;28;20076;-68
2023/08/29 08:14:19;;;;;;;1.08;0.90;;;16.30;1.00;;;;;;5144333;28;20048;-69
2023/08/29 08:16:50;;;;;;;1.88;0.85;;;16.30;1.00;;;;;;5142186;28;20046;-68
2023/08/29 08:19:22;;;;;;;0.70;0.70;;;16.40;1.00;;;;;;5162398;28;20040;-69
2023/08/29 08:21:53;;;;;;;0.80;0.80;;;16.40;1.00;;;;;;5175765;28;20072;-69
2023/08/29 08:24:27;;;;;;;0.90;0.90;;;16.40;1.00;;;;;;5151030;28;20153;-68
2023/08/29 08:27:01;;;;;;;2.63;0.90;;;16.20;1.00;;;;;;5179851;28;20264;-68
2023/08/29 08:29:33;;;;;;;3.53;1.20;;;16.20;35.00;;;;;;5150402;28;20059;-68
2023/08/29 08:32:06;;;;;;;1.20;0.88;;;16.20;38.80;;;;;;5154817;28;20045;-68
2023/08/29 08:34:41;;;;;;;0.60;0.60;;;16.30;1.00;;;;;;5167637;28;20133;-68
2023/08/29 08:37:13;;;;;;;0.82;0.60;;;16.30;1.00;;;;;;5177492;28;20034;-68
2023/08/29 08:39:44;;;;;;;1.73;0.80;;;16.10;1.00;;;;;;5160488;28;20422;-68
2023/08/29 08:42:19;;;;;;;2.05;0.60;;;15.90;1.00;;;;;;5144908;28;20057;-72
2023/08/29 08:44:51;;;;;;;0.45;0.45;;;15.90;8.40;;;;;;5157122;28;20538;-69
2023/08/29 08:47:24;;;;;;;0.50;0.50;;;15.90;40.00;;;;;;5134464;28;21008;-69
2023/08/29 08:49:55;;;;;;;0.75;0.75;;;15.70;1.00;;;;;;5160362;28;20034;-68
2023/08/29 08:52:32;;;;;;;1.40;0.50;;;15.70;1.00;;;;;;5153203;28;20046;-67
2023/08/29 08:55:05;;;;;;;0.73;0.60;;;15.70;1.00;;;;;;5109677;28;20063;-68
2023/08/29 08:57:41;;;;;;;1.25;0.80;;;15.80;1.00;;;;;;5160182;28;20041;-68
2023/08/29 09:00:13;;;;;;;0.65;0.52;;;15.90;1.00;;;;;;5147557;28;20045;-68
2023/08/29 09:02:45;;;;;;;0.57;0.57;;;16.00;1.00;;;;;;5154043;28;20262;-68
2023/08/29 09:05:18;;;;;;;0.60;0.60;;;15.90;1.00;;;;;;5187330;28;20042;-68
2023/08/29 09:07:50;;;;;;;1.15;1.10;;;15.90;16.80;;;;;;5174341;28;20065;-68
2023/08/29 09:10:23;;;;;;;0.70;0.70;;;16.00;13.70;;;;;;5180268;28;20384;-70
2023/08/29 09:13:00;;;;;;;3.15;0.98;;;16.00;11.80;;;;;;5178924;28;20055;-68
2023/08/29 09:15:34;;;;;;;0.65;0.65;;;16.00;99.90;;;;;;5143404;28;20040;-68
2023/08/29 09:18:07;;;;;;;2.40;0.70;;;16.00;65.80;;;;;;5148068;28;20040;-67
2023/08/29 09:20:45;;;;;;;0.70;0.70;;;16.00;94.60;;;;;;5171228;28;20041;-69
2023/08/29 09:23:30;;;;;;;1.00;0.60;;;16.10;83.80;;;;;;5151144;28;20156;-67
2023/08/29 09:26:07;;;;;;;0.80;0.80;;;16.30;7.00;;;;;;5149512;28;20045;-68
2023/08/29 09:28:40;;;;;;;0.60;0.52;;;16.70;1.00;;;;;;5139546;28;20044;-69
2023/08/29 09:31:15;;;;;;;1.95;0.75;;;17.10;1.00;;;;;;5129112;28;20040;-69
2023/08/29 09:33:49;;;;;;;0.60;0.60;;;17.50;1.00;;;;;;5143506;28;20292;-69
2023/08/29 09:36:21;;;;;;;0.50;0.50;;;17.50;1.00;;;;;;5137047;28;20322;-69
2023/08/29 09:38:58;;;;;;;0.47;0.45;;;17.50;1.00;;;;;;5167129;28;20286;-72
2023/08/29 09:41:33;;;;;;;0.50;0.50;;;17.70;1.00;;;;;;5114423;28;20056;-69
2023/08/29 09:44:12;;;;;;;1.48;0.85;;;17.60;1.00;;;;;;5134839;28;20463;-70
2023/08/29 09:46:44;;;;;;;0.55;0.55;;;17.50;1.00;;;;;;5159197;28;20037;-69
2023/08/29 09:49:16;;;;;;;0.50;0.50;;;17.10;1.00;;;;;;5154940;28;20045;-69
2023/08/29 09:51:56;;;;;;;0.52;0.52;;;17.10;1.00;;;;;;5138467;28;20053;-69
2023/08/29 09:54:32;;;;;;;0.47;0.47;;;17.20;1.00;;;;;;5159190;28;20064;-69
2023/08/29 09:57:08;;;;;;;0.50;0.50;;;17.00;1.00;;;;;;5130603;28;20298;-68
2023/08/29 09:59:41;;;;;;;0.40;0.40;;;16.80;1.00;;;;;;5171322;28;20363;-69
2023/08/29 10:02:14;;;;;;;0.50;0.50;;;16.90;1.00;;;;;;5154920;28;20042;-68
2023/08/29 10:04:50;;;;;;;0.60;0.60;;;16.90;1.00;;;;;;5143478;28;20406;-68
2023/08/29 10:07:32;;;;;;;0.47;0.47;;;17.00;1.00;;;;;;5144067;28;20047;-69
2023/08/29 10:10:11;;;;;;;0.40;0.40;;;16.90;1.00;;;;;;5129523;28;20050;-68
2023/08/29 10:12:44;;;;;;;0.40;0.40;;;16.90;1.00;;;;;;5174614;28;20041;-68
2023/08/29 10:15:22;;;;;;;0.40;0.40;;;17.10;1.00;;;;;;5141202;28;20064;-67
2023/08/29 10:17:55;;;;;;;0.50;0.50;;;16.90;1.00;;;;;;5139313;28;20530;-69
2023/08/29 10:20:28;;;;;;;0.80;0.65;;;17.10;1.00;;;;;;5160526;28;20051;-68
2023/08/29 10:23:03;;;;;;;0.47;0.47;;;17.10;1.00;;;;;;5157721;28;20049;-68
2023/08/29 10:25:39;;;;;;;0.57;0.57;;;17.30;1.00;;;;;;5158283;28;20105;-68
2023/08/29 10:28:15;;;;;;;0.52;0.52;;;17.60;1.00;;;;;;5170349;28;20040;-68
2023/08/29 10:30:50;;;;;;;0.60;0.60;;;17.60;1.00;;;;;;5137936;28;20414;-67
2023/08/29 10:33:24;;;;;;;0.50;0.50;;;17.80;1.00;;;;;;5174798;28;20069;-68
2023/08/29 10:36:01;;;;;;;0.63;0.63;;;18.10;1.00;;;;;;5161725;28;20203;-69
2023/08/29 10:38:46;;;;;;;0.70;0.70;;;17.90;1.00;;;;;;5136959;28;20043;-68
2023/08/29 10:41:19;;;;;;;1.00;0.70;;;17.30;1.00;;;;;;5147408;28;20044;-67
2023/08/29 10:43:53;;;;;;;0.60;0.60;;;17.20;1.00;;;;;;5144784;28;20044;-67
2023/08/29 10:46:24;;;;;;;;;;;17.20;1.00;;;;;;5160007;28;20330;-68
2023/08/29 10:49:01;;;;;;;0.60;0.60;;;17.20;1.00;;;;;;5160449;28;19910;-69
2023/08/29 10:51:35;;;;;;;0.60;0.60;;;17.30;1.00;;;;;;5158562;28;20053;-67
2023/08/29 10:54:12;;;;;;;0.80;0.80;;;17.30;1.00;;;;;;5124827;28;20056;-69
2023/08/29 10:56:47;;;;;;;0.80;0.80;;;17.40;1.00;;;;;;5159139;28;20044;-69
2023/08/29 10:59:37;;;;;;;0.50;0.50;;;17.30;1.00;;;;;;5157364;28;20026;-69
2023/08/29 11:02:41;;;;;;;0.40;0.40;;;17.20;1.00;;;;;;5135965;28;20049;-68
2023/08/29 11:05:16;;;;;;;0.80;0.80;;;17.40;1.00;;;;;;5158901;28;20242;-69
2023/08/29 11:07:53;;;;;;;0.65;0.65;;;17.40;1.00;;;;;;5161012;28;20037;-68
2023/08/29 11:10:24;;;;;;;0.70;0.70;;;17.20;1.00;;;;;;5160672;28;20042;-69
2023/08/29 11:13:15;;;;;;;0.73;0.73;;;17.30;1.00;;;;;;5158985;28;20250;-69
2023/08/29 11:15:50;;;;;;;0.60;0.60;;;17.20;1.00;;;;;;5149654;28;20037;-69
2023/08/29 11:18:24;;;;;;;;;;;17.20;1.00;;;;;;5174973;28;20310;-69
2023/08/29 11:21:00;;;;;;;0.70;0.70;;;17.00;1.00;;;;;;5176944;28;20110;-68
2023/08/29 11:23:40;;;;;;;0.77;0.77;;;16.90;1.00;;;;;;5132202;28;20287;-68
2023/08/29 11:26:11;;;;;;;0.75;0.75;;;16.80;1.00;;;;;;5177308;28;20040;-68
2023/08/29 11:28:47;;;;;;;0.82;0.82;;;16.90;1.00;;;;;;5149149;28;20037;-69
2023/08/29 11:31:19;;;;;;;0.60;0.60;;;17.00;1.00;;;;;;5144508;28;20584;-68
2023/08/29 11:33:52;;;;;;;3.38;0.90;;;17.10;1.00;;;;;;5158588;28;20045;-69
2023/08/29 11:36:35;;;;;;;0.80;0.80;;;17.20;1.00;;;;;;5161997;28;20513;-69
2023/08/29 11:39:09;;;;;;;0.80;0.80;;;17.30;1.00;;;;;;5169391;28;20041;-68
2023/08/29 11:41:44;;;;;;;0.70;0.70;;;17.40;1.00;;;;;;5174629;28;20045;-68
2023/08/29 11:44:17;;;;;;;0.93;0.93;;;17.40;1.00;;;;;;5131185;28;20599;-68
2023/08/29 11:46:51;;;;;;;0.97;0.97;;;17.50;1.00;;;;;;5137120;28;20045;-68
2023/08/29 11:49:23;;;;;;;0.90;0.90;;;17.40;1.00;;;;;;5145782;28;20048;-68
2023/08/29 11:51:54;;;;;;;0.70;0.70;;;17.60;1.00;;;;;;5162746;28;20045;-69
2023/08/29 11:54:50;;;;;;;1.13;0.88;;;17.90;1.00;;;;;;5144647;28;20048;-70
2023/08/29 11:57:22;;;;;;;0.90;0.90;;;18.10;1.00;;;;;;5138600;28;20045;-69
2023/08/29 12:00:00;;;;;;;1.35;0.80;;;17.90;1.00;;;;;;5143827;28;20034;-68
2023/08/29 12:02:33;;;;;;;0.60;0.60;;;17.80;1.00;;;;;;5152540;28;20034;-69
2023/08/29 12:05:10;;;;;;;0.68;0.68;;;17.70;1.00;;;;;;5159898;28;20034;-69
2023/08/29 12:07:41;;;;;;;0.60;0.60;;;17.70;1.00;;;;;;5159622;28;20049;-69
2023/08/29 12:10:18;;;;;;;1.25;0.82;;;18.10;1.00;;;;;;5166915;28;20034;-69
2023/08/29 12:12:49;;;;;;;0.70;0.70;;;18.10;99.90;;;;;;5141688;28;20053;-69
2023/08/29 12:15:38;;;;;;;0.70;0.70;;;18.00;99.90;;;;;;5133459;28;20052;-70
2023/08/29 12:18:26;;;;;;;0.82;0.82;;;18.10;99.90;;;;;;5166601;28;20049;-71
2023/08/29 12:21:21;;;;;;;0.80;0.80;;;17.80;99.90;;;;;;5166978;28;20051;-68
2023/08/29 12:24:07;;;;;;;0.68;0.68;;;17.80;99.90;;;;;;5162823;28;20441;-67
2023/08/29 12:26:41;;;;;;;0.80;0.80;;;18.00;99.90;;;;;;5154081;28;20049;-68
2023/08/29 12:29:13;;;;;;;1.17;1.17;;;18.50;99.90;;;;;;5144530;28;20042;-69
2023/08/29 12:31:47;;;;;;;0.90;0.90;;;18.50;99.90;;;;;;5154381;28;20048;-69
2023/08/29 12:34:19;;;;;;;0.80;0.80;;;17.90;99.90;;;;;;5162062;28;20045;-69
2023/08/29 12:36:50;;;;;;;0.70;0.70;;;17.80;99.90;;;;;;5183514;28;20030;-68
2023/08/29 12:39:24;;;;;;;0.57;0.57;;;17.80;99.90;;;;;;5158251;28;20033;-69
2023/08/29 12:42:02;;;;;;;0.73;0.73;;;17.90;99.90;;;;;;5153496;28;20245;-69
2023/08/29 12:44:33;;;;;;;0.70;0.70;;;18.10;99.90;;;;;;5133996;28;20056;-69
2023/08/29 12:47:07;;;;;;;0.73;0.73;;;18.00;99.90;;;;;;5142923;28;20048;-69
2023/08/29 12:49:39;;;;;;;0.70;0.70;;;18.50;99.90;;;;;;5123497;28;20141;-69
2023/08/29 12:52:15;;;;;;;0.68;0.68;;;19.20;99.90;;;;;;5153200;28;20049;-70
2023/08/29 12:54:47;;;;;;;0.70;0.70;;;19.20;99.90;;;;;;5155262;28;20053;-70
2023/08/29 12:57:18;;;;;;;0.70;0.70;;;19.00;99.90;;;;;;5170649;28;20055;-70
2023/08/29 12:59:50;;;;;;;0.85;0.85;;;18.70;99.90;;;;;;5152742;28;20042;-69
2023/08/29 13:02:21;;;;;;;0.60;0.60;;;18.50;99.90;;;;;;5139295;28;20045;-70
2023/08/29 13:04:53;;;;;;;0.93;0.93;;;18.50;1.00;;;;;;5171790;28;20030;-70
2023/08/29 13:07:27;;;;;;;0.90;0.90;;;18.70;99.90;;;;;;5138248;28;20334;-70
2023/08/29 13:10:03;;;;;;;1.30;1.00;;;18.80;99.90;;;;;;5153777;28;20049;-70
2023/08/29 13:12:40;;;;;;;1.42;0.93;;;19.00;99.90;;;;;;5128933;28;20036;-70
2023/08/29 13:15:19;;;;;;;2.40;0.90;;;19.00;99.90;;;;;;5166193;28;20033;-70
2023/08/29 13:17:58;;;;;;;0.90;0.90;;;19.10;99.90;;;;;;5144301;28;20337;-70
2023/08/29 13:20:33;;;;;;;0.63;0.63;;;18.60;99.90;;;;;;5167898;28;20080;-69
2023/08/29 13:23:04;;;;;;;0.63;0.63;;;18.60;99.90;;;;;;5144512;28;20049;-69
2023/08/29 13:25:36;;;;;;;0.70;0.70;;;18.50;99.90;;;;;;5160018;28;20060;-70
2023/08/29 13:28:10;;;;;;;13.25;1.45;;;18.30;99.90;;;;;;5107942;28;20193;-70
2023/08/29 13:30:44;;;;;;;0.70;0.70;;;18.50;99.90;;;;;;5167313;28;20060;-70